Time;durP1;ratioP1;P1;durP2;ratioP2;P2;SDS_P1;SDS_P2;PMS_P1;PMS_P2;Temp;Humidity;BMP_temperature;BMP_pressure;BME280_temperature;BME280_humidity;BME280_pressure;Samples;Min_cycle;Max_cycle;Signal;HPM_P1;HPM_P2
2021/12/05 00:24:19;;;;;;;2.13;1.60;;;-3.60;99.90;;;;;;4837896;29;20114;-64
2021/12/05 00:26:53;;;;;;;1.70;1.60;;;-3.60;99.90;;;;;;4838167;29;20053;-65
2021/12/05 00:29:38;;;;;;;1.52;1.42;;;-3.50;99.90;;;;;;4850503;29;20394;-67
2021/12/05 00:32:16;;;;;;;1.70;1.60;;;-3.50;99.90;;;;;;4836318;29;20093;-63
2021/12/05 00:53:44;;;;;;;2.73;2.00;;;-3.30;99.90;;;;;;4856890;29;20050;-63
2021/12/05 01:02:01;;;;;;;2.80;1.57;;;-3.20;99.90;;;;;;4823342;29;20069;-66
2021/12/05 01:10:14;;;;;;;3.47;3.15;;;-3.10;99.90;;;;;;4840082;29;20053;-64
2021/12/05 01:15:19;;;;;;;2.17;1.92;;;-3.00;99.90;;;;;;4847642;29;20134;-71
2021/12/05 01:18:01;;;;;;;3.92;3.17;;;-3.00;99.90;;;;;;4838253;29;20134;-70
2021/12/05 01:20:37;;;;;;;2.58;1.88;;;-3.10;99.90;;;;;;4857616;29;20543;-66
2021/12/05 01:23:16;;;;;;;2.67;2.08;;;-3.10;99.90;;;;;;4855273;29;20053;-70
2021/12/05 01:26:29;;;;;;;2.20;1.97;;;-3.20;99.90;;;;;;4866867;29;20060;-64
2021/12/05 01:34:36;;;;;;;3.38;2.55;;;-3.30;99.90;;;;;;4842465;29;20081;-62
2021/12/05 01:37:01;;;;;;;3.85;2.60;;;-3.30;99.90;;;;;;4832557;29;20102;-62
2021/12/05 02:31:16;;;;;;;3.70;2.67;;;-3.80;99.90;;;;;;4857340;29;20489;-67
2021/12/05 02:41:40;;;;;;;2.90;2.05;;;-3.90;99.90;;;;;;4848057;29;20046;-66
2021/12/05 02:44:21;;;;;;;2.77;2.53;;;-3.90;99.90;;;;;;4841724;29;20544;-64
2021/12/05 02:47:11;;;;;;;2.93;2.33;;;-4.00;99.90;;;;;;4846047;29;20050;-67
2021/12/05 02:49:41;;;;;;;4.07;2.90;;;-4.00;99.90;;;;;;4835937;29;20057;-64
2021/12/05 02:52:13;;;;;;;2.85;2.30;;;-4.00;99.90;;;;;;4839303;29;20046;-63
2021/12/05 02:54:47;;;;;;;4.37;2.30;;;-4.00;99.90;;;;;;4847025;29;20050;-68
2021/12/05 02:57:14;;;;;;;3.45;2.08;;;-4.00;99.90;;;;;;4867054;29;20050;-68
2021/12/05 02:59:47;;;;;;;2.77;2.10;;;-4.00;99.90;;;;;;4850695;29;20057;-67
2021/12/05 03:02:17;;;;;;;4.30;3.33;;;-4.00;99.90;;;;;;4835695;29;20061;-65
2021/12/05 03:04:50;;;;;;;2.83;2.42;;;-4.00;99.90;;;;;;4849249;29;20508;-67
2021/12/05 03:07:25;;;;;;;2.80;2.00;;;-4.00;99.90;;;;;;4870243;29;20078;-67
2021/12/05 03:09:53;;;;;;;2.83;1.80;;;-4.00;99.90;;;;;;4850867;29;20073;-64
2021/12/05 03:12:21;;;;;;;2.07;1.63;;;-4.00;99.90;;;;;;4850522;29;20041;-70
2021/12/05 03:14:50;;;;;;;4.37;2.10;;;-4.00;99.90;;;;;;4839796;29;20461;-64
2021/12/05 03:17:18;;;;;;;2.65;1.95;;;-4.00;99.90;;;;;;4871566;29;20061;-66
2021/12/05 03:19:45;;;;;;;2.85;1.83;;;-4.00;99.90;;;;;;4868517;29;20061;-66
2021/12/05 03:22:13;;;;;;;4.65;3.22;;;-4.00;99.90;;;;;;4852398;29;20154;-70
2021/12/05 03:24:42;;;;;;;2.20;2.00;;;-4.00;99.90;;;;;;4854156;29;20118;-62
2021/12/05 03:27:11;;;;;;;2.78;2.35;;;-4.10;99.90;;;;;;4845358;29;20077;-63
2021/12/05 03:29:38;;;;;;;3.43;1.70;;;-4.10;99.90;;;;;;4836594;29;20054;-64
2021/12/05 03:32:07;;;;;;;3.10;2.70;;;-4.10;99.90;;;;;;4852912;29;20049;-65
2021/12/05 03:34:34;;;;;;;1.77;1.67;;;-4.20;99.90;;;;;;4839508;29;20037;-64
2021/12/05 03:37:04;;;;;;;3.33;2.20;;;-4.20;99.90;;;;;;4835119;29;20102;-65
2021/12/05 03:39:35;;;;;;;3.23;1.90;;;-4.20;99.90;;;;;;4864270;29;20272;-68
2021/12/05 03:42:04;;;;;;;6.30;2.70;;;-4.30;99.90;;;;;;4842864;29;20408;-64
2021/12/05 03:44:33;;;;;;;2.73;1.87;;;-4.30;99.90;;;;;;4836806;29;20418;-63
2021/12/05 03:47:05;;;;;;;3.80;1.97;;;-4.30;99.90;;;;;;4867566;29;20122;-67
2021/12/05 03:49:35;;;;;;;3.37;2.70;;;-4.30;99.90;;;;;;4853725;29;20114;-64
2021/12/05 03:52:15;;;;;;;4.20;2.80;;;-4.40;99.90;;;;;;4843218;29;20133;-64
2021/12/05 03:54:44;;;;;;;2.88;2.03;;;-4.40;99.90;;;;;;4839976;29;20053;-64
2021/12/05 03:57:11;;;;;;;3.80;2.27;;;-4.40;99.90;;;;;;4842052;29;20056;-63
2021/12/05 03:59:40;;;;;;;4.37;2.53;;;-4.50;99.90;;;;;;4871212;29;20497;-69
2021/12/05 04:02:09;;;;;;;4.83;2.30;;;-4.50;99.90;;;;;;4855131;29;20058;-67
2021/12/05 04:04:39;;;;;;;6.87;3.77;;;-4.50;99.90;;;;;;4849242;29;20054;-62
2021/12/05 04:07:09;;;;;;;3.78;3.03;;;-4.50;99.90;;;;;;4854218;29;20616;-62
2021/12/05 04:09:36;;;;;;;5.03;2.80;;;-4.40;99.90;;;;;;4842071;29;20057;-69
2021/12/05 04:12:04;;;;;;;4.53;3.43;;;-4.40;99.90;;;;;;4847422;29;20073;-64
2021/12/05 04:14:40;;;;;;;5.43;3.53;;;-4.40;99.90;;;;;;4834321;29;20069;-63
2021/12/05 04:17:10;;;;;;;6.27;3.77;;;-4.40;99.90;;;;;;4860346;29;20058;-67
2021/12/05 04:19:38;;;;;;;5.43;3.00;;;-4.40;99.90;;;;;;4851159;29;20062;-67
2021/12/05 04:22:07;;;;;;;4.93;3.63;;;-4.40;99.90;;;;;;4838158;29;20057;-66
2021/12/05 04:24:36;;;;;;;4.68;3.03;;;-4.50;99.90;;;;;;4850202;29;20073;-64
2021/12/05 04:27:04;;;;;;;2.77;2.07;;;-4.50;99.90;;;;;;4839827;29;20058;-71
2021/12/05 04:29:33;;;;;;;6.10;2.60;;;-4.50;99.90;;;;;;4841291;29;20054;-63
2021/12/05 04:32:01;;;;;;;4.60;2.17;;;-4.50;99.90;;;;;;4860020;29;20054;-68
2021/12/05 04:34:29;;;;;;;2.97;2.10;;;-4.50;99.90;;;;;;4839665;29;20189;-67
2021/12/05 04:36:57;;;;;;;5.47;2.60;;;-4.40;99.90;;;;;;4855290;29;20056;-63
2021/12/05 04:39:26;;;;;;;4.17;2.50;;;-4.40;99.90;;;;;;4866369;29;20050;-66
2021/12/05 04:41:55;;;;;;;2.87;2.53;;;-4.40;99.90;;;;;;4852446;29;20060;-67
2021/12/05 04:44:24;;;;;;;3.20;3.00;;;-4.40;99.90;;;;;;4841407;29;20061;-63
2021/12/05 04:46:53;;;;;;;;;;;-4.40;99.90;;;;;;4865198;29;20460;-65
2021/12/05 04:49:22;;;;;;;3.37;1.80;;;-4.40;99.90;;;;;;4834441;29;19991;-62
2021/12/05 04:51:50;;;;;;;4.00;2.70;;;-4.30;99.90;;;;;;4836414;29;20053;-65
2021/12/05 04:54:20;;;;;;;2.83;2.33;;;-4.20;99.90;;;;;;4842624;29;20049;-66
2021/12/05 04:56:49;;;;;;;3.53;2.28;;;-4.10;99.90;;;;;;4849918;29;20049;-62
2021/12/05 04:59:26;;;;;;;2.37;2.13;;;-4.00;99.90;;;;;;4869107;29;20049;-63
2021/12/05 05:01:57;;;;;;;4.10;2.10;;;-4.00;99.90;;;;;;4849487;29;20073;-62
2021/12/05 05:04:28;;;;;;;4.93;2.50;;;-4.00;99.90;;;;;;4833751;29;20298;-68
2021/12/05 05:07:06;;;;;;;3.73;2.97;;;-4.00;99.90;;;;;;4837557;29;20112;-68
2021/12/05 05:09:34;;;;;;;5.67;3.17;;;-3.90;99.90;;;;;;4837564;29;20046;-64
2021/12/05 05:12:01;;;;;;;10.13;3.60;;;-3.90;99.90;;;;;;4843971;29;20098;-63
2021/12/05 05:14:28;;;;;;;7.03;3.60;;;-3.80;99.90;;;;;;4832728;29;21595;-63
2021/12/05 05:16:55;;;;;;;4.83;3.17;;;-3.80;99.90;;;;;;4840728;29;20058;-64
2021/12/05 05:19:29;;;;;;;5.80;3.10;;;-3.80;99.90;;;;;;4841282;29;20140;-62
2021/12/05 05:22:06;;;;;;;4.97;3.70;;;-3.80;99.90;;;;;;4841333;29;20509;-65
2021/12/05 05:46:49;;;;;;;5.20;3.88;;;-3.50;99.90;;;;;;4842810;29;20121;-62
2021/12/05 05:49:22;;;;;;;2.88;2.50;;;-3.60;99.90;;;;;;4846576;29;20140;-67
2021/12/05 05:51:49;;;;;;;3.13;2.33;;;-3.60;99.90;;;;;;4848701;29;20057;-65
2021/12/05 05:54:18;;;;;;;4.32;3.42;;;-3.60;99.90;;;;;;4839103;29;20053;-65
2021/12/05 05:56:46;;;;;;;4.32;2.92;;;-3.60;99.90;;;;;;4864497;29;20053;-66
2021/12/05 05:59:20;;;;;;;2.80;1.65;;;-3.60;99.90;;;;;;4844773;29;20052;-66
2021/12/05 06:04:19;;;;;;;3.80;2.50;;;-3.60;99.90;;;;;;4856471;29;20054;-62
2021/12/05 06:06:50;;;;;;;5.47;2.60;;;-3.60;99.90;;;;;;4841835;29;20053;-66
2021/12/05 06:09:17;;;;;;;2.72;2.20;;;-3.50;99.90;;;;;;4837798;29;20058;-61
2021/12/05 06:11:44;;;;;;;2.60;2.30;;;-3.50;99.90;;;;;;4842468;29;20042;-68
2021/12/05 06:14:12;;;;;;;2.00;1.47;;;-3.40;99.90;;;;;;4843933;29;20050;-67
2021/12/05 06:16:38;;;;;;;2.40;2.03;;;-3.40;99.90;;;;;;4842797;29;20046;-65
2021/12/05 06:19:06;;;;;;;3.20;1.63;;;-3.30;99.90;;;;;;4840655;29;20488;-62
2021/12/05 06:21:33;;;;;;;2.13;1.77;;;-3.20;99.90;;;;;;4848714;29;20049;-72
2021/12/05 06:24:00;;;;;;;2.58;2.30;;;-3.20;99.90;;;;;;4842150;29;20126;-63
2021/12/05 06:26:27;;;;;;;2.63;1.85;;;-3.10;99.90;;;;;;4842783;29;20054;-66
2021/12/05 06:29:45;;;;;;;2.88;2.00;;;-3.20;99.90;;;;;;4861233;29;20709;-66
2021/12/05 06:32:31;;;;;;;3.45;1.88;;;-3.10;99.90;;;;;;4842667;29;20050;-65
2021/12/05 06:47:58;;;;;;;1.85;1.73;;;-3.10;99.90;;;;;;4840872;29;20054;-70
2021/12/05 06:50:25;;;;;;;2.30;2.10;;;-3.10;99.90;;;;;;4833330;29;20516;-68
2021/12/05 06:52:52;;;;;;;4.47;2.05;;;-3.10;99.90;;;;;;4842660;29;20122;-64
2021/12/05 06:55:19;;;;;;;2.75;1.80;;;-3.10;99.90;;;;;;4839253;29;20126;-64
2021/12/05 06:57:47;;;;;;;3.57;2.90;;;-3.00;99.90;;;;;;4834153;29;20069;-62
2021/12/05 07:00:19;;;;;;;2.42;1.70;;;-3.00;99.90;;;;;;4838278;29;20049;-66
2021/12/05 07:02:46;;;;;;;3.70;1.75;;;-3.00;99.90;;;;;;4837649;29;20061;-65
2021/12/05 07:05:51;;;;;;;3.15;1.65;;;-3.00;99.90;;;;;;4842767;29;20064;-68
2021/12/05 07:08:11;;;;;;;2.28;1.58;;;-2.90;99.90;;;;;;4855933;29;20052;-64
2021/12/05 07:10:47;;;;;;;;;;;-2.90;99.90;;;;;;4840060;29;20050;-65
2021/12/05 07:43:10;;;;;;;2.67;1.90;;;-2.60;99.90;;;;;;4762644;29;20320;-65
2021/12/05 07:45:46;;;;;;;2.70;1.70;;;-2.60;99.90;;;;;;4761774;30;20087;-72
2021/12/05 07:48:19;;;;;;;2.33;2.10;;;-2.50;99.90;;;;;;4791438;29;20054;-67
2021/12/05 07:56:14;;;;;;;3.17;2.88;;;-2.40;99.90;;;;;;4835426;29;20045;-64
2021/12/05 07:58:53;;;;;;;3.28;2.15;;;-2.30;99.90;;;;;;4836551;29;20146;-65
2021/12/05 08:15:19;;;;;;;3.10;2.55;;;-2.00;99.90;;;;;;4836697;29;20484;-68
2021/12/05 08:17:52;;;;;;;2.80;2.03;;;-2.00;99.90;;;;;;4832918;29;20070;-63
2021/12/05 08:20:30;;;;;;;2.42;1.83;;;-2.00;99.90;;;;;;4833363;29;20045;-69
2021/12/05 08:23:00;;;;;;;3.17;2.58;;;-2.00;99.90;;;;;;4844722;29;20050;-64
2021/12/05 08:25:30;;;;;;;2.03;1.83;;;-2.00;99.90;;;;;;4841407;29;20064;-65
2021/12/05 08:28:14;;;;;;;3.92;2.40;;;-2.00;99.90;;;;;;4837550;29;20973;-64
2021/12/05 08:30:43;;;;;;;3.15;1.92;;;-2.00;99.90;;;;;;4838471;29;20053;-63
2021/12/05 10:09:06;;;;;;;3.00;2.38;;;-2.40;99.90;;;;;;4830617;29;20046;-66
2021/12/05 10:35:04;;;;;;;3.95;2.90;;;-2.10;99.90;;;;;;4835563;29;20050;-64
2021/12/05 10:37:30;;;;;;;2.78;1.92;;;-2.10;99.90;;;;;;4838855;29;20117;-64
2021/12/05 10:40:12;;;;;;;3.08;2.13;;;-2.10;99.90;;;;;;4836254;29;20102;-71
2021/12/05 10:42:51;;;;;;;3.28;2.80;;;-2.10;99.90;;;;;;4840577;29;20497;-64
2021/12/05 10:45:33;;;;;;;3.97;2.00;;;-2.00;99.90;;;;;;4841159;29;20144;-64
2021/12/05 10:48:05;;;;;;;2.47;1.67;;;-2.00;99.90;;;;;;4842985;29;20057;-70
2021/12/05 10:50:52;;;;;;;2.17;1.85;;;-2.00;99.90;;;;;;4841862;29;20125;-66
2021/12/05 10:53:35;;;;;;;2.92;2.05;;;-2.00;99.90;;;;;;4840421;29;20061;-63
2021/12/05 10:56:14;;;;;;;2.42;2.10;;;-2.00;99.90;;;;;;4837187;29;20053;-64
2021/12/05 10:58:46;;;;;;;2.47;2.03;;;-2.00;99.90;;;;;;4847747;29;20104;-67
2021/12/05 11:01:21;;;;;;;2.72;1.58;;;-2.00;99.90;;;;;;4849370;29;20048;-63
2021/12/05 11:03:52;;;;;;;6.75;1.90;;;-2.00;99.90;;;;;;4840959;29;20061;-64
2021/12/05 11:06:26;;;;;;;2.00;1.80;;;-2.00;99.90;;;;;;4837772;29;20068;-64
2021/12/05 11:09:15;;;;;;;2.83;1.77;;;-2.00;99.90;;;;;;4833346;29;20150;-66
2021/12/05 11:11:45;;;;;;;1.83;1.73;;;-2.00;99.90;;;;;;4839974;29;20061;-67
2021/12/05 11:14:17;;;;;;;2.58;1.65;;;-2.00;99.90;;;;;;4836362;29;20113;-65
2021/12/05 11:16:50;;;;;;;2.05;1.55;;;-2.00;99.90;;;;;;4840864;29;20057;-67
2021/12/05 11:19:21;;;;;;;2.63;1.55;;;-2.00;99.90;;;;;;4837930;29;20496;-64
2021/12/05 11:21:56;;;;;;;3.20;1.63;;;-1.90;99.90;;;;;;4841029;29;20054;-69
2021/12/05 11:24:38;;;;;;;2.65;1.75;;;-1.90;99.90;;;;;;4840337;29;20586;-69
2021/12/05 11:27:27;;;;;;;1.58;1.35;;;-2.00;99.90;;;;;;4843671;29;20507;-66
2021/12/05 11:30:15;;;;;;;1.88;1.15;;;-1.90;99.90;;;;;;4839442;29;20084;-65
2021/12/05 11:32:44;;;;;;;1.70;1.35;;;-2.00;99.90;;;;;;4867641;29;20085;-66
2021/12/05 11:35:38;;;;;;;1.67;1.52;;;-1.90;99.90;;;;;;4853434;29;20056;-65
2021/12/05 11:38:25;;;;;;;1.48;1.05;;;-1.90;99.90;;;;;;4835057;29;20053;-65
2021/12/05 11:40:55;;;;;;;5.53;2.28;;;-1.90;99.90;;;;;;4840598;29;20058;-67
2021/12/05 11:43:33;;;;;;;1.67;1.20;;;-1.90;99.90;;;;;;4841976;29;20061;-62
2021/12/05 11:46:11;;;;;;;1.70;1.35;;;-1.90;99.90;;;;;;4834779;29;20061;-70
2021/12/05 11:48:46;;;;;;;1.60;1.20;;;-1.90;99.90;;;;;;4838633;29;20144;-63
2021/12/05 11:51:37;;;;;;;1.95;1.40;;;-1.90;99.90;;;;;;4831096;29;20174;-63
2021/12/05 11:54:09;;;;;;;1.08;1.08;;;-1.90;99.90;;;;;;4837053;29;20504;-70
2021/12/05 11:56:36;;;;;;;2.28;1.73;;;-1.90;99.90;;;;;;4839378;29;20046;-65
2021/12/05 11:59:24;;;;;;;2.40;1.30;;;-1.90;99.90;;;;;;4834906;29;20050;-66
2021/12/05 12:02:00;;;;;;;2.80;1.63;;;-1.80;99.90;;;;;;4837639;29;20121;-66
2021/12/05 12:04:44;;;;;;;1.67;1.45;;;-1.80;99.90;;;;;;4837542;29;20061;-64
2021/12/05 12:07:29;;;;;;;1.15;0.98;;;-1.80;99.90;;;;;;4837297;29;20086;-65
2021/12/05 12:10:25;;;;;;;2.78;1.33;;;-1.90;99.90;;;;;;4836021;29;20104;-63
2021/12/05 12:12:56;;;;;;;2.15;1.30;;;-1.80;99.90;;;;;;4842769;29;20057;-65
2021/12/05 12:15:25;;;;;;;1.35;1.13;;;-1.80;99.90;;;;;;4837561;29;20054;-64
2021/12/05 12:17:57;;;;;;;2.05;1.77;;;-1.80;99.90;;;;;;4834698;29;20105;-67
2021/12/05 12:20:26;;;;;;;1.88;1.38;;;-1.80;99.90;;;;;;4837875;29;20404;-64
2021/12/05 12:22:56;;;;;;;3.15;1.38;;;-1.80;99.90;;;;;;4838557;29;20046;-66
2021/12/05 12:25:27;;;;;;;4.25;1.10;;;-1.90;99.90;;;;;;4840855;29;20045;-63
2021/12/05 12:27:55;;;;;;;2.55;1.75;;;-1.80;99.90;;;;;;4835906;29;20050;-63
2021/12/05 12:30:26;;;;;;;3.05;2.47;;;-1.90;99.90;;;;;;4834590;29;20144;-64
2021/12/05 12:33:15;;;;;;;1.85;1.17;;;-1.90;99.90;;;;;;4829145;29;20049;-65
2021/12/05 12:35:47;;;;;;;2.70;2.22;;;-1.90;99.90;;;;;;4839794;29;20057;-65
2021/12/05 12:38:24;;;;;;;1.40;1.30;;;-2.00;99.90;;;;;;4839919;29;20053;-65
2021/12/05 12:41:01;;;;;;;1.35;1.25;;;-2.00;99.90;;;;;;4836264;29;20544;-65
2021/12/05 12:43:45;;;;;;;2.08;1.17;;;-2.00;99.90;;;;;;4837194;29;20053;-68
2021/12/05 12:46:27;;;;;;;1.13;0.98;;;-2.10;99.90;;;;;;4833037;29;20102;-64
2021/12/05 12:49:00;;;;;;;1.58;0.90;;;-2.10;99.90;;;;;;4834102;29;20128;-67
2021/12/05 12:51:37;;;;;;;5.43;2.67;;;-2.20;99.90;;;;;;4837192;29;20061;-64
2021/12/05 12:54:10;;;;;;;4.32;2.53;;;-2.20;99.90;;;;;;4834310;29;20062;-63
2021/12/05 12:56:39;;;;;;;2.03;1.65;;;-2.30;99.90;;;;;;4836123;29;20060;-63
2021/12/05 12:59:14;;;;;;;1.35;1.23;;;-2.30;99.90;;;;;;4835118;29;20491;-63
2021/12/05 13:13:04;;;;;;;2.17;1.63;;;-2.40;99.90;;;;;;4837553;29;20064;-63
2021/12/05 13:15:36;;;;;;;3.47;1.58;;;-2.50;99.90;;;;;;4838406;29;20062;-67
2021/12/05 13:18:13;;;;;;;4.30;1.70;;;-2.50;99.90;;;;;;4831474;29;20516;-66
2021/12/05 13:20:43;;;;;;;2.10;1.20;;;-2.50;99.90;;;;;;4838487;29;20107;-68
2021/12/05 13:23:12;;;;;;;3.25;1.65;;;-2.60;99.90;;;;;;4835295;29;20053;-63
2021/12/05 13:26:02;;;;;;;8.88;5.00;;;-2.60;99.90;;;;;;4833605;29;20057;-64
2021/12/05 13:28:52;;;;;;;3.63;2.88;;;-2.70;99.90;;;;;;4832090;29;20058;-64
2021/12/05 13:31:28;;;;;;;8.00;3.15;;;-2.70;99.90;;;;;;4835416;29;20065;-64
2021/12/05 13:34:17;;;;;;;2.55;2.28;;;-2.80;99.90;;;;;;4831933;29;20073;-69
2021/12/05 13:37:13;;;;;;;4.55;2.88;;;-2.80;99.90;;;;;;4834049;29;20141;-66
2021/12/05 13:39:47;;;;;;;2.58;2.13;;;-2.80;99.90;;;;;;4824536;29;20611;-66
2021/12/05 13:42:21;;;;;;;3.50;2.92;;;-2.80;99.90;;;;;;4832328;29;20052;-64
2021/12/05 13:45:04;;;;;;;5.60;2.53;;;-2.80;99.90;;;;;;4833800;29;20067;-70
2021/12/05 13:47:52;;;;;;;3.30;2.97;;;-2.90;99.90;;;;;;4839020;29;20068;-64
2021/12/05 13:50:19;;;;;;;4.47;2.60;;;-2.90;99.90;;;;;;4837912;29;20049;-63
2021/12/05 13:52:46;;;;;;;4.10;2.47;;;-2.90;99.90;;;;;;4834522;29;20047;-66
2021/12/05 13:55:31;;;;;;;2.83;2.50;;;-3.00;99.90;;;;;;4841102;29;20064;-65
2021/12/05 13:58:13;;;;;;;3.75;2.40;;;-3.00;99.90;;;;;;4837845;29;20058;-63
2021/12/05 14:00:47;;;;;;;2.90;2.70;;;-3.00;99.90;;;;;;4839076;29;20668;-66
2021/12/05 14:03:51;;;;;;;6.20;3.00;;;-3.10;99.90;;;;;;4838662;29;20049;-65
2021/12/05 14:06:52;;;;;;;8.07;3.30;;;-3.10;99.90;;;;;;4833676;29;20496;-65
2021/12/05 14:09:23;;;;;;;5.95;3.17;;;-3.20;99.90;;;;;;4837432;29;20073;-64
2021/12/05 14:11:52;;;;;;;5.53;3.25;;;-3.20;99.90;;;;;;4842540;29;20061;-63
2021/12/05 14:14:29;;;;;;;4.13;3.83;;;-3.30;99.90;;;;;;4841216;29;20054;-65
2021/12/05 14:16:58;;;;;;;3.87;2.70;;;-3.30;99.90;;;;;;4841463;29;20102;-64
2021/12/05 14:19:31;;;;;;;2.50;2.30;;;-3.40;99.90;;;;;;4840085;29;20121;-66
2021/12/05 14:22:01;;;;;;;3.53;2.75;;;-3.40;99.90;;;;;;4838784;29;20061;-64
2021/12/05 14:24:32;;;;;;;2.95;2.30;;;-3.40;99.90;;;;;;4841337;29;20058;-64
2021/12/05 14:27:02;;;;;;;3.65;2.75;;;-3.40;99.90;;;;;;4851721;29;20442;-68
2021/12/05 14:29:31;;;;;;;3.83;2.97;;;-3.50;99.90;;;;;;4839414;29;20057;-64
2021/12/05 14:32:06;;;;;;;5.28;3.20;;;-3.50;99.90;;;;;;4840108;29;20042;-63
2021/12/05 14:34:35;;;;;;;5.00;3.47;;;-3.50;99.90;;;;;;4840085;29;20049;-66
2021/12/05 14:37:11;;;;;;;3.10;2.80;;;-3.60;99.90;;;;;;4836800;29;20058;-70
2021/12/05 14:39:48;;;;;;;4.70;3.30;;;-3.60;99.90;;;;;;4840784;29;20094;-65
2021/12/05 14:42:23;;;;;;;4.95;3.88;;;-3.70;99.90;;;;;;4845040;29;20045;-64
2021/12/05 14:44:54;;;;;;;5.13;3.60;;;-3.70;99.90;;;;;;4839253;29;20064;-64
2021/12/05 14:47:24;;;;;;;4.87;3.50;;;-3.80;99.90;;;;;;4843995;29;20131;-67
2021/12/05 14:49:55;;;;;;;3.53;2.40;;;-3.90;99.90;;;;;;4837192;29;20102;-64
2021/12/05 14:52:29;;;;;;;2.63;2.33;;;-3.90;99.90;;;;;;4837922;29;20485;-63
2021/12/05 14:54:56;;;;;;;2.80;2.47;;;-4.00;99.90;;;;;;4842721;29;20050;-69
2021/12/05 14:57:30;;;;;;;3.47;3.13;;;-4.00;99.90;;;;;;4834869;29;20054;-66
2021/12/05 15:00:07;;;;;;;3.47;3.17;;;-4.00;99.90;;;;;;4840101;29;21239;-65
2021/12/05 15:02:35;;;;;;;3.73;3.43;;;-4.10;99.90;;;;;;4838240;29;20054;-71
2021/12/05 15:05:07;;;;;;;3.53;3.17;;;-4.20;99.90;;;;;;4841269;29;20061;-65
2021/12/05 15:07:35;;;;;;;4.60;2.60;;;-4.20;99.90;;;;;;4836075;29;20161;-66
2021/12/05 15:10:03;;;;;;;6.57;3.17;;;-4.30;99.90;;;;;;4837752;29;20412;-63
2021/12/05 15:12:33;;;;;;;6.63;4.43;;;-4.30;99.90;;;;;;4834894;29;20066;-70
2021/12/05 15:15:08;;;;;;;9.47;7.73;;;-4.30;99.90;;;;;;4838186;29;20049;-63
2021/12/05 15:17:39;;;;;;;7.43;5.70;;;-4.40;99.90;;;;;;4840509;29;20112;-65
2021/12/05 15:20:13;;;;;;;5.53;4.80;;;-4.40;99.90;;;;;;4833895;29;20061;-65
2021/12/05 15:22:43;;;;;;;8.70;4.50;;;-4.40;99.90;;;;;;4836728;29;20492;-65
2021/12/05 15:25:14;;;;;;;8.50;5.13;;;-4.30;99.90;;;;;;4837581;29;20118;-64
2021/12/05 15:27:44;;;;;;;6.73;4.93;;;-4.30;99.90;;;;;;4874461;23;20037;-83
2021/12/05 15:30:23;;;;;;;5.80;5.20;;;-4.30;99.90;;;;;;4880086;29;20044;-87
2021/12/05 15:32:55;;;;;;;7.70;5.17;;;-4.20;99.90;;;;;;4889275;29;20044;-83
2021/12/05 15:35:23;;;;;;;5.87;5.23;;;-4.10;99.90;;;;;;4889540;29;20059;-82
2021/12/05 15:37:52;;;;;;;4.47;4.07;;;-4.10;99.90;;;;;;4901745;29;20430;-82
2021/12/05 15:40:20;;;;;;;5.50;4.00;;;-4.00;99.90;;;;;;4885861;29;20055;-82
2021/12/05 15:42:48;;;;;;;6.30;4.30;;;-4.00;99.90;;;;;;4887781;29;20041;-82
2021/12/05 15:45:18;;;;;;;3.10;2.67;;;-4.00;99.90;;;;;;4886756;29;20056;-81
2021/12/05 15:47:46;;;;;;;3.17;2.58;;;-4.00;99.90;;;;;;4888458;29;20135;-81
2021/12/05 15:50:16;;;;;;;3.47;2.93;;;-3.90;99.90;;;;;;4889221;29;20060;-81
2021/12/05 15:53:05;;;;;;;2.80;2.30;;;-3.90;99.90;;;;;;4888548;29;20044;-80
2021/12/05 15:55:43;;;;;;;3.30;2.50;;;-3.90;99.90;;;;;;4895171;29;20072;-80
2021/12/05 15:58:18;;;;;;;3.97;2.90;;;-3.80;99.90;;;;;;4888971;29;20044;-81
2021/12/05 16:00:50;;;;;;;3.57;2.67;;;-3.80;99.90;;;;;;4888861;29;20064;-81
2021/12/05 16:03:20;;;;;;;4.33;2.70;;;-3.70;99.90;;;;;;4888071;29;20147;-81
2021/12/05 16:05:54;;;;;;;4.32;2.58;;;-3.70;99.90;;;;;;4883767;29;20045;-81
2021/12/05 16:08:21;;;;;;;3.17;2.87;;;-3.60;99.90;;;;;;4887202;29;20517;-80
2021/12/05 16:10:51;;;;;;;9.23;3.00;;;-3.50;99.90;;;;;;4896720;29;20060;-81
2021/12/05 16:13:21;;;;;;;3.70;2.20;;;-3.50;99.90;;;;;;4885020;29;20040;-81
2021/12/05 16:15:52;;;;;;;;;;;-3.50;99.90;;;;;;4902234;29;20384;-81
2021/12/05 16:18:29;;;;;;;3.87;2.27;;;-3.40;99.90;;;;;;4882106;29;20377;-81
2021/12/05 16:21:02;;;;;;;2.90;2.60;;;-3.40;99.90;;;;;;4888552;29;20072;-81
2021/12/05 16:23:31;;;;;;;4.80;2.13;;;-3.40;99.90;;;;;;4889429;29;20123;-81
2021/12/05 16:26:13;;;;;;;5.32;3.60;;;-3.40;99.90;;;;;;4888356;29;20043;-80
2021/12/05 16:28:49;;;;;;;3.67;3.23;;;-3.30;99.90;;;;;;4889897;29;20056;-80
2021/12/05 16:31:23;;;;;;;3.67;2.50;;;-3.30;99.90;;;;;;4902690;29;20056;-81
2021/12/05 16:33:57;;;;;;;6.75;2.58;;;-3.30;99.90;;;;;;4888346;29;20148;-80
2021/12/05 16:36:40;;;;;;;3.30;2.20;;;-3.30;99.90;;;;;;4887160;29;20049;-81
2021/12/05 16:39:16;;;;;;;2.55;2.08;;;-3.30;99.90;;;;;;4889119;29;20071;-81
2021/12/05 16:41:50;;;;;;;2.17;1.80;;;-3.20;99.90;;;;;;4883756;29;20048;-81
2021/12/05 16:44:20;;;;;;;8.45;4.07;;;-3.10;99.90;;;;;;4887469;29;20060;-81
2021/12/05 16:46:49;;;;;;;;;;;-3.00;99.90;;;;;;4899375;29;20403;-81
2021/12/05 16:49:22;;;;;;;1.83;1.70;;;-3.00;99.90;;;;;;4888418;29;19923;-81
2021/12/05 16:52:02;;;;;;;3.88;2.50;;;-3.00;99.90;;;;;;4879891;29;20048;-81
2021/12/05 16:54:33;;;;;;;3.17;2.10;;;-3.00;99.90;;;;;;4886283;29;20051;-81
2021/12/05 16:57:13;;;;;;;2.35;2.00;;;-3.00;99.90;;;;;;4901622;29;20044;-81
2021/12/05 16:59:47;;;;;;;2.97;2.25;;;-3.00;99.90;;;;;;4886506;29;20041;-81
2021/12/05 17:02:22;;;;;;;5.43;3.47;;;-3.00;99.90;;;;;;4890457;29;20075;-81
2021/12/05 17:05:00;;;;;;;5.77;2.27;;;-3.00;99.90;;;;;;4889009;29;20049;-81
2021/12/05 17:07:50;;;;;;;2.80;2.17;;;-2.90;99.90;;;;;;4890323;29;20097;-81
2021/12/05 17:10:26;;;;;;;3.15;2.50;;;-2.90;99.90;;;;;;4883775;29;20562;-80
2021/12/05 17:13:18;;;;;;;5.72;2.80;;;-2.90;99.90;;;;;;4907643;29;20506;-80
2021/12/05 17:15:51;;;;;;;3.47;2.72;;;-2.90;99.90;;;;;;4882304;29;20071;-80
2021/12/05 17:18:24;;;;;;;6.70;3.67;;;-2.90;99.90;;;;;;4888084;29;20462;-81
2021/12/05 17:20:56;;;;;;;4.25;2.88;;;-2.90;99.90;;;;;;4883993;29;20157;-80
2021/12/05 17:23:42;;;;;;;4.00;3.00;;;-2.90;99.90;;;;;;4886148;29;20044;-80
2021/12/05 17:26:17;;;;;;;8.93;3.20;;;-2.90;99.90;;;;;;4902532;29;20418;-81
2021/12/05 17:28:48;;;;;;;5.40;3.72;;;-2.90;99.90;;;;;;4893141;29;20055;-80
2021/12/05 17:31:28;;;;;;;4.15;2.75;;;-2.90;99.90;;;;;;4890435;29;20043;-80
2021/12/05 17:33:59;;;;;;;4.00;3.20;;;-2.90;99.90;;;;;;4904014;29;20563;-80
2021/12/05 17:36:44;;;;;;;4.32;3.17;;;-2.90;99.90;;;;;;4893075;29;20054;-80
2021/12/05 17:39:18;;;;;;;4.45;3.13;;;-2.80;99.90;;;;;;4889013;29;20056;-80
2021/12/05 17:41:49;;;;;;;5.43;2.72;;;-2.80;99.90;;;;;;4890141;29;20592;-80
2021/12/05 17:44:18;;;;;;;3.97;3.55;;;-2.80;99.90;;;;;;4889774;29;20501;-81
2021/12/05 17:46:48;;;;;;;5.95;3.50;;;-2.80;99.90;;;;;;4892216;29;20064;-81
2021/12/05 17:49:18;;;;;;;3.58;2.67;;;-2.80;99.90;;;;;;4881839;29;20052;-84
2021/12/05 17:51:46;;;;;;;3.53;3.22;;;-2.80;99.90;;;;;;4909297;29;20049;-83
2021/12/05 17:54:53;;;;;;;2.90;2.70;;;-2.80;99.90;;;;;;4892722;29;20047;-83
2021/12/05 17:57:17;;;;;;;3.45;2.70;;;-2.80;99.90;;;;;;4891576;29;20045;-83
2021/12/05 18:00:00;;;;;;;5.40;2.13;;;-2.80;99.90;;;;;;4894304;29;20053;-82
2021/12/05 18:05:23;;;;;;;2.15;1.75;;;-2.90;99.90;;;;;;4889366;29;20043;-81
2021/12/05 18:07:53;;;;;;;4.00;2.22;;;-3.00;99.90;;;;;;4885222;29;20399;-81
2021/12/05 18:10:25;;;;;;;3.90;2.08;;;-3.00;99.90;;;;;;4891777;29;20071;-81
2021/12/05 18:12:57;;;;;;;1.77;1.50;;;-3.10;99.90;;;;;;4891907;29;20127;-81
2021/12/05 18:15:49;;;;;;;2.00;1.70;;;-3.10;99.90;;;;;;4891885;29;20044;-81
2021/12/05 18:18:17;;;;;;;2.20;2.00;;;-3.20;99.90;;;;;;4894630;29;20325;-81
2021/12/05 18:20:44;;;;;;;2.65;2.00;;;-3.30;99.90;;;;;;4892196;29;20140;-81
2021/12/05 18:23:11;;;;;;;2.75;2.55;;;-3.30;99.90;;;;;;4909501;29;20060;-81
2021/12/05 18:25:40;;;;;;;3.40;2.27;;;-3.40;99.90;;;;;;4904095;29;20049;-81
2021/12/05 18:28:08;;;;;;;4.10;2.58;;;-3.40;99.90;;;;;;4889204;29;20048;-81
2021/12/05 18:30:37;;;;;;;2.13;1.98;;;-3.40;99.90;;;;;;4889567;29;20053;-81
2021/12/05 18:33:07;;;;;;;3.53;2.83;;;-3.40;99.90;;;;;;4887385;29;20056;-81
2021/12/05 18:35:34;;;;;;;;;;;-3.40;99.90;;;;;;4884185;29;20163;-81
2021/12/05 18:38:07;;;;;;;5.37;2.77;;;-3.40;99.90;;;;;;4887027;29;19934;-82
2021/12/05 18:40:36;;;;;;;4.97;3.27;;;-3.40;99.90;;;;;;4885626;29;20045;-81
2021/12/05 18:43:04;;;;;;;5.85;3.95;;;-3.40;99.90;;;;;;4901034;29;20426;-81
2021/12/05 18:45:35;;;;;;;5.07;3.47;;;-3.40;99.90;;;;;;4889387;29;20143;-81
2021/12/05 18:48:02;;;;;;;7.53;4.60;;;-3.50;99.90;;;;;;4889584;29;20064;-81
2021/12/05 18:50:30;;;;;;;4.40;3.40;;;-3.50;99.90;;;;;;4886900;29;20060;-81
2021/12/05 18:52:58;;;;;;;6.50;3.53;;;-3.50;99.90;;;;;;4906530;29;20057;-81
2021/12/05 18:55:25;;;;;;;4.33;3.97;;;-3.60;99.90;;;;;;4889734;29;20128;-81
2021/12/05 18:57:54;;;;;;;4.90;2.95;;;-3.60;99.90;;;;;;4890594;29;20428;-81
2021/12/05 19:00:39;;;;;;;5.63;3.80;;;-3.60;99.90;;;;;;4903375;29;20052;-82
2021/12/05 19:06:07;;;;;;;5.88;3.58;;;-3.50;99.90;;;;;;4892016;29;20104;-79